Terminal Aerodrome Forecast
Issued by NWS Jackson, MS

Home | Current Version | Previous Version | Text Only | Print | Product List | Glossary On
Versions: 1 2 3 4 5 6 7 8 9 10 11 12
000
FTUS44 KJAN 291100
TAFHBG
TAF
KHBG 291137Z 2912/3012 00000KT 6SM BR SCT250
     FM291330 14004KT P6SM SCT030 SCT250
     FM292000 15007KT P6SM VCTS BKN040CB BKN250
     FM300000 16003KT P6SM OVC200
     FM300900 00000KT 4SM BR FEW020 OVC200=

USA.gov is the U.S. government's official web portal to all federal, state and local government web resources and services.